Time;durP1;ratioP1;P1;durP2;ratioP2;P2;SDS_P1;SDS_P2;PMS_P1;PMS_P2;Temp;Humidity;BMP_temperature;BMP_pressure;BME280_temperature;BME280_humidity;BME280_pressure;Samples;Min_cycle;Max_cycle;Signal;HPM_P1;HPM_P2
2022/12/31 00:01:35;;;;;;;68.28;41.53;;;;;;;7.79;66.44;95643.00;4165319;28;20048;-73
2022/12/31 00:03:39;;;;;;;64.85;38.28;;;;;;;7.81;66.57;95641.13;4176957;28;20064;-74
2022/12/31 00:05:41;;;;;;;72.38;40.67;;;;;;;7.82;66.64;95644.53;4169695;28;20073;-75
2022/12/31 00:07:43;;;;;;;73.68;41.70;;;;;;;7.80;66.66;95644.66;4157008;28;20141;-75
2022/12/31 00:09:45;;;;;;;73.25;41.45;;;;;;;7.72;66.88;95645.25;4174608;28;20559;-74
2022/12/31 00:11:47;;;;;;;71.43;42.90;;;;;;;7.78;66.45;95643.94;4176621;28;20140;-75
2022/12/31 00:13:49;;;;;;;71.45;40.55;;;;;;;7.79;67.01;95632.56;4176662;28;20045;-75
2022/12/31 00:15:50;;;;;;;74.70;42.47;;;;;;;7.87;66.79;95629.34;4166276;28;20049;-74
2022/12/31 00:17:52;;;;;;;68.75;38.50;;;;;;;7.91;66.40;95641.22;4177412;28;20049;-74
2022/12/31 00:19:54;;;;;;;74.90;38.58;;;;;;;7.95;66.53;95640.03;4183665;28;20049;-74
2022/12/31 00:21:56;;;;;;;58.15;36.28;;;;;;;8.00;66.68;95643.09;4145421;28;20096;-75
2022/12/31 00:23:57;;;;;;;59.63;36.75;;;;;;;8.06;66.01;95644.41;4161589;28;20061;-74
2022/12/31 00:26:10;;;;;;;62.28;36.53;;;;;;;8.03;66.32;95644.66;4174632;28;20060;-75
2022/12/31 00:28:12;;;;;;;60.70;37.58;;;;;;;8.08;66.03;95651.16;4168588;28;20527;-75
2022/12/31 00:30:14;;;;;;;65.45;36.22;;;;;;;8.13;65.81;95650.78;4173484;28;20056;-75
2022/12/31 00:32:16;;;;;;;59.05;35.83;;;;;;;8.18;65.25;95653.88;4143105;28;20046;-73
2022/12/31 00:34:18;;;;;;;54.50;33.03;;;;;;;8.18;65.31;95656.50;4167980;28;20126;-74
2022/12/31 00:36:32;;;;;;;54.22;31.75;;;;;;;8.19;65.33;95651.16;4177172;28;20469;-76
2022/12/31 00:38:34;;;;;;;54.30;31.58;;;;;;;8.24;65.10;95666.47;4176976;28;20460;-74
2022/12/31 00:40:36;;;;;;;53.65;29.10;;;;;;;8.21;64.43;95664.06;4158815;28;20045;-73
2022/12/31 00:42:38;;;;;;;53.42;31.13;;;;;;;8.20;64.96;95662.44;4170664;28;20050;-74
2022/12/31 00:44:39;;;;;;;50.33;29.67;;;;;;;8.16;64.85;95663.63;4172409;28;20449;-75
2022/12/31 00:46:41;;;;;;;42.97;27.77;;;;;;;8.11;65.11;95669.22;4177218;28;20072;-75
2022/12/31 00:48:42;;;;;;;46.67;30.05;;;;;;;8.10;65.70;95671.94;4176892;28;20070;-73
2022/12/31 00:50:44;;;;;;;47.30;29.83;;;;;;;8.04;65.46;95673.22;4170650;28;20566;-74
2022/12/31 00:52:46;;;;;;;51.75;30.58;;;;;;;7.94;65.74;95678.34;4170510;28;20056;-76
2022/12/31 00:54:47;;;;;;;59.63;35.10;;;;;;;7.48;68.16;95670.59;4163437;28;20386;-76
2022/12/31 00:56:49;;;;;;;60.90;37.47;;;;;;;7.42;68.57;95673.66;4176981;28;20083;-73
2022/12/31 00:58:51;;;;;;;68.72;39.35;;;;;;;7.16;68.51;95666.88;4172764;28;20053;-75
2022/12/31 01:00:53;;;;;;;62.88;38.00;;;;;;;7.12;69.12;95680.22;4171146;28;20135;-75
2022/12/31 01:02:55;;;;;;;75.63;43.88;;;;;;;7.00;69.94;95687.19;4165765;28;20081;-72
2022/12/31 01:04:57;;;;;;;68.35;42.38;;;;;;;7.01;70.27;95688.00;4165417;28;20107;-74
2022/12/31 01:06:59;;;;;;;78.18;45.80;;;;;;;6.89;70.34;95680.16;4164859;28;20049;-74
2022/12/31 01:09:01;;;;;;;80.38;46.60;;;;;;;6.81;70.65;95676.44;4164568;28;20077;-74
2022/12/31 01:11:18;;;;;;;75.80;45.33;;;;;;;6.94;70.95;95688.44;4166301;28;20060;-74
2022/12/31 01:13:20;;;;;;;87.25;48.63;;;;;;;7.04;70.07;95691.22;4168017;28;20053;-74
2022/12/31 01:15:21;;;;;;;96.45;52.58;;;;;;;7.12;69.99;95691.50;4152430;28;20132;-74
2022/12/31 01:17:23;;;;;;;86.90;49.72;;;;;;;7.16;69.64;95679.03;4173650;28;20064;-75
2022/12/31 01:19:27;;;;;;;85.60;49.00;;;;;;;7.26;69.24;95695.66;4173798;28;20056;-73
2022/12/31 01:21:29;;;;;;;89.20;49.72;;;;;;;7.29;69.05;95692.00;4160509;28;20071;-73
2022/12/31 01:23:31;;;;;;;83.30;47.53;;;;;;;7.32;68.54;95691.78;4157364;28;20061;-75
2022/12/31 01:25:35;;;;;;;85.78;48.20;;;;;;;7.27;68.69;95693.88;4157779;28;20080;-74
2022/12/31 01:27:37;;;;;;;78.70;48.85;;;;;;;7.22;69.11;95696.00;4165783;28;20110;-72
2022/12/31 01:29:38;;;;;;;79.20;48.28;;;;;;;7.23;69.11;95695.91;4173841;28;20071;-74
2022/12/31 01:31:40;;;;;;;82.63;48.42;;;;;;;7.27;68.78;95699.09;4173167;28;20148;-76
2022/12/31 01:33:42;;;;;;;84.53;48.88;;;;;;;7.30;68.68;95694.50;4171010;28;20144;-74
2022/12/31 01:35:44;;;;;;;84.32;47.72;;;;;;;7.39;68.89;95699.00;4174239;28;20124;-73
2022/12/31 01:37:46;;;;;;;81.43;46.83;;;;;;;7.45;67.89;95696.91;4165632;28;20063;-75
2022/12/31 01:39:48;;;;;;;88.90;48.10;;;;;;;7.41;68.19;95691.09;4176003;28;20087;-73
2022/12/31 01:41:50;;;;;;;80.53;45.88;;;;;;;7.43;68.06;95698.81;4175747;28;20944;-73
2022/12/31 01:44:21;;;;;;;86.50;46.10;;;;;;;7.36;67.94;95701.03;4176120;28;20161;-73
2022/12/31 01:46:33;;;;;;;77.78;45.33;;;;;;;7.38;67.99;95702.56;4162169;28;20061;-75
2022/12/31 01:48:35;;;;;;;79.40;45.97;;;;;;;7.43;67.97;95704.00;4165600;28;20158;-73
2022/12/31 01:50:38;;;;;;;86.85;47.60;;;;;;;7.42;68.06;95711.00;4173020;28;20127;-74
2022/12/31 01:52:43;;;;;;;85.38;47.00;;;;;;;7.45;67.70;95702.13;4165261;28;20183;-75
2022/12/31 01:54:52;;;;;;;85.15;46.05;;;;;;;7.38;67.31;95699.16;4138187;28;20054;-74
2022/12/31 01:56:54;;;;;;;75.50;46.83;;;;;;;7.42;67.43;95702.34;4158546;28;20107;-75
2022/12/31 01:58:56;;;;;;;73.45;45.50;;;;;;;7.42;67.67;95713.63;4168184;28;20080;-76
2022/12/31 02:00:58;;;;;;;73.78;44.22;;;;;;;7.45;67.78;95702.94;4153702;28;20062;-73
2022/12/31 02:03:01;;;;;;;82.38;47.10;;;;;;;7.38;67.84;95710.41;4173968;28;20099;-73
2022/12/31 02:05:11;;;;;;;78.43;44.13;;;;;;;7.35;67.98;95708.00;4173486;28;20132;-72
2022/12/31 02:07:12;;;;;;;84.13;45.88;;;;;;;7.38;68.33;95717.41;4150922;28;20167;-73
2022/12/31 02:09:14;;;;;;;73.13;45.33;;;;;;;7.43;67.69;95715.25;4172571;28;20522;-75
2022/12/31 02:11:33;;;;;;;76.40;43.92;;;;;;;7.44;67.69;95710.88;4158299;28;20092;-74
2022/12/31 02:13:35;;;;;;;71.32;42.70;;;;;;;7.46;67.50;95714.19;4175856;28;20061;-74
2022/12/31 02:16:10;;;;;;;74.60;41.45;;;;;;;7.53;67.25;95712.81;4175346;28;20053;-74
2022/12/31 02:18:21;;;;;;;72.13;41.88;;;;;;;7.48;67.04;95715.75;4154750;28;20134;-74
2022/12/31 02:20:48;;;;;;;75.55;44.60;;;;;;;7.21;67.76;95723.84;4176153;28;20057;-74
2022/12/31 02:22:59;;;;;;;76.35;44.08;;;;;;;6.97;68.67;95727.31;4162292;28;20056;-76
2022/12/31 02:25:39;;;;;;;79.10;43.25;;;;;;;6.97;69.06;95726.50;4167597;28;20054;-73
2022/12/31 02:27:41;;;;;;;79.47;43.55;;;;;;;7.05;69.01;95716.31;4108155;28;20054;-72
2022/12/31 02:30:09;;;;;;;74.97;41.65;;;;;;;7.10;68.88;95723.81;4108451;28;20074;-75
2022/12/31 02:32:20;;;;;;;65.03;39.92;;;;;;;7.16;68.76;95718.13;4118196;28;20166;-74
2022/12/31 02:34:40;;;;;;;66.88;40.05;;;;;;;7.21;68.64;95717.81;4161089;28;20132;-73
2022/12/31 02:36:43;;;;;;;67.05;38.88;;;;;;;7.20;68.23;95727.38;4160805;28;20427;-75
2022/12/31 02:38:46;;;;;;;77.87;40.87;;;;;;;7.20;68.67;95731.78;4158782;28;20054;-74
2022/12/31 02:40:48;;;;;;;67.63;38.00;;;;;;;7.20;68.55;95731.78;4168262;28;20067;-75
2022/12/31 02:42:50;;;;;;;70.43;36.28;;;;;;;7.22;68.29;95728.09;4178094;28;20167;-75
2022/12/31 02:44:56;;;;;;;64.13;37.35;;;;;;;7.29;67.92;95734.56;4166245;28;20061;-74
2022/12/31 02:47:04;;;;;;;60.97;37.08;;;;;;;7.36;68.17;95734.91;4177452;28;20057;-73
2022/12/31 02:49:38;;;;;;;57.53;35.60;;;;;;;7.36;67.73;95738.34;4178233;28;20049;-73
2022/12/31 02:51:44;;;;;;;65.20;36.30;;;;;;;7.36;68.16;95740.13;4173834;28;20107;-74
2022/12/31 02:54:20;;;;;;;59.92;35.20;;;;;;;7.36;67.64;95737.53;4150010;28;20077;-74
2022/12/31 02:56:27;;;;;;;58.97;35.25;;;;;;;7.34;67.51;95732.41;4178343;28;20052;-77
2022/12/31 03:03:18;;;;;;;58.28;33.67;;;;;;;7.32;67.86;95729.09;4150634;28;20260;-73
2022/12/31 03:05:23;;;;;;;55.60;33.20;;;;;;;7.30;68.11;95736.19;4160635;28;20551;-74
2022/12/31 03:07:30;;;;;;;56.75;33.75;;;;;;;7.33;67.74;95720.31;4167678;28;20088;-74
2022/12/31 03:09:33;;;;;;;55.88;32.85;;;;;;;7.35;67.13;95728.84;4174984;28;20045;-74
2022/12/31 03:13:55;;;;;;;57.42;33.90;;;;;;;7.26;67.13;95724.34;4176891;28;20069;-75
2022/12/31 03:15:57;;;;;;;56.20;34.97;;;;;;;7.22;67.54;95724.69;4176932;28;20052;-74
2022/12/31 03:18:04;;;;;;;57.33;33.50;;;;;;;7.14;67.75;95715.66;4177803;28;20169;-74
2022/12/31 03:22:27;;;;;;;50.25;30.85;;;;;;;7.14;68.18;95717.41;4174226;28;20431;-73
2022/12/31 03:26:49;;;;;;;55.10;33.83;;;;;;;7.02;68.78;95716.56;4183920;28;20095;-75
2022/12/31 03:28:51;;;;;;;55.03;31.85;;;;;;;6.99;68.48;95716.78;4190209;28;20175;-75
2022/12/31 03:30:57;;;;;;;63.22;32.95;;;;;;;6.96;68.81;95722.22;4177261;28;20076;-74
2022/12/31 03:33:00;;;;;;;60.22;34.25;;;;;;;7.01;68.46;95722.69;4177524;28;20554;-75
2022/12/31 03:35:01;;;;;;;50.35;32.28;;;;;;;7.04;67.82;95719.88;4176439;28;20068;-72
2022/12/31 03:37:03;;;;;;;59.13;34.60;;;;;;;6.99;67.93;95722.00;4175907;28;20489;-73
2022/12/31 03:39:05;;;;;;;58.45;34.88;;;;;;;6.88;68.47;95716.72;4178296;28;20045;-74
2022/12/31 03:41:09;;;;;;;55.60;32.75;;;;;;;6.77;69.13;95722.69;4177948;28;20356;-75
2022/12/31 03:43:11;;;;;;;56.15;33.75;;;;;;;6.57;69.42;95729.34;4174757;28;20091;-75
2022/12/31 03:45:14;;;;;;;57.58;34.45;;;;;;;6.15;70.98;95723.59;4172679;28;20389;-77
2022/12/31 03:47:16;;;;;;;59.55;35.17;;;;;;;6.15;71.18;95729.66;4156145;28;20053;-75
2022/12/31 03:49:18;;;;;;;70.40;38.97;;;;;;;6.07;71.89;95736.34;4176708;28;20152;-77
2022/12/31 03:51:19;;;;;;;57.88;36.38;;;;;;;6.10;72.18;95729.13;4175183;28;20403;-73
2022/12/31 03:53:21;;;;;;;67.72;40.40;;;;;;;6.17;71.76;95734.75;4173770;28;20053;-74
2022/12/31 03:55:23;;;;;;;59.30;36.85;;;;;;;6.30;71.60;95734.72;4159248;28;20064;-76
2022/12/31 03:57:25;;;;;;;70.25;37.00;;;;;;;6.28;71.05;95736.59;4175474;28;20146;-75
2022/12/31 03:59:27;;;;;;;60.60;37.67;;;;;;;6.30;71.24;95732.13;4174832;28;20476;-77
2022/12/31 04:01:28;;;;;;;62.60;38.75;;;;;;;6.37;70.75;95735.97;4174970;28;20053;-73
2022/12/31 04:03:30;;;;;;;54.42;34.72;;;;;;;6.43;70.27;95748.56;4175247;28;20056;-74
2022/12/31 04:05:32;;;;;;;56.97;35.97;;;;;;;6.44;70.17;95738.97;4175824;28;20053;-76
2022/12/31 04:07:34;;;;;;;59.88;35.35;;;;;;;6.49;70.05;95734.25;4175257;28;20057;-74
2022/12/31 04:09:36;;;;;;;61.58;36.67;;;;;;;6.53;69.68;95739.13;4177008;28;20064;-75
2022/12/31 04:11:37;;;;;;;59.65;36.53;;;;;;;6.49;70.12;95742.91;4177592;28;20056;-74
2022/12/31 04:13:39;;;;;;;65.47;37.35;;;;;;;6.48;69.65;95749.06;4177043;28;20168;-73
2022/12/31 04:15:41;;;;;;;60.50;37.53;;;;;;;6.36;69.72;95748.13;4176954;28;20045;-75
2022/12/31 04:17:43;;;;;;;60.47;36.35;;;;;;;6.37;70.10;95748.97;4176674;28;20122;-76
2022/12/31 04:19:44;;;;;;;73.20;40.92;;;;;;;6.31;70.15;95744.19;4177706;28;20465;-73
2022/12/31 04:21:46;;;;;;;73.93;43.45;;;;;;;6.14;70.01;95745.38;4176930;28;20139;-74
2022/12/31 04:23:48;;;;;;;91.70;53.08;;;;;;;5.49;72.45;95746.28;4171292;28;20098;-73
2022/12/31 04:25:49;;;;;;;89.85;49.40;;;;;;;5.34;73.73;95751.56;4171693;28;20065;-74
2022/12/31 04:27:51;;;;;;;81.72;48.53;;;;;;;5.51;73.85;95747.03;4171400;28;20365;-74
2022/12/31 04:29:53;;;;;;;83.28;47.38;;;;;;;5.64;73.32;95747.84;4177626;28;20472;-75
2022/12/31 04:31:55;;;;;;;75.18;45.90;;;;;;;5.82;72.82;95750.97;4172192;28;20057;-73
2022/12/31 04:33:56;;;;;;;75.15;44.45;;;;;;;5.97;72.06;95759.53;4169862;28;20045;-74
2022/12/31 04:36:06;;;;;;;75.95;44.75;;;;;;;6.13;71.40;95757.56;4159748;28;20064;-76
2022/12/31 04:38:08;;;;;;;76.75;43.22;;;;;;;6.24;70.65;95759.41;4168365;28;20045;-73
2022/12/31 04:40:10;;;;;;;77.90;43.28;;;;;;;6.30;70.38;95765.94;4174300;28;20049;-76
2022/12/31 04:42:12;;;;;;;73.15;41.75;;;;;;;6.30;70.39;95769.41;4176521;28;20072;-73
2022/12/31 04:44:14;;;;;;;72.60;41.78;;;;;;;6.19;70.43;95760.66;4176962;28;20099;-73
2022/12/31 04:46:22;;;;;;;70.20;39.65;;;;;;;6.24;70.13;95771.56;4173136;28;20644;-72
2022/12/31 04:48:23;;;;;;;65.97;40.55;;;;;;;6.26;70.20;95765.34;4142441;28;20065;-76
2022/12/31 04:50:25;;;;;;;73.90;42.13;;;;;;;6.32;70.00;95769.28;4160238;28;20069;-75
2022/12/31 04:52:27;;;;;;;67.55;41.65;;;;;;;6.36;69.55;95765.53;4173520;28;20052;-77
2022/12/31 04:54:29;;;;;;;63.08;37.38;;;;;;;6.40;69.56;95772.19;4175457;28;20128;-75
2022/12/31 04:56:31;;;;;;;61.55;37.33;;;;;;;6.45;69.48;95774.47;4169825;28;20061;-75
2022/12/31 04:58:34;;;;;;;66.25;40.58;;;;;;;6.38;69.02;95773.22;4161169;28;20057;-74
2022/12/31 05:00:54;;;;;;;62.70;35.72;;;;;;;6.32;69.43;95769.28;4162118;28;20091;-75
2022/12/31 05:02:56;;;;;;;61.28;37.40;;;;;;;6.36;69.42;95776.75;4167479;28;20052;-75
2022/12/31 05:04:58;;;;;;;63.85;39.38;;;;;;;6.36;69.43;95771.56;4174264;28;20216;-75
2022/12/31 05:06:59;;;;;;;67.60;39.45;;;;;;;6.29;69.12;95780.72;4162564;28;20065;-73
2022/12/31 05:09:01;;;;;;;64.10;40.47;;;;;;;6.26;69.62;95793.13;4176387;28;20049;-74
2022/12/31 05:11:03;;;;;;;74.20;44.90;;;;;;;6.14;69.50;95787.81;4176210;28;20049;-75
2022/12/31 05:13:05;;;;;;;74.82;44.25;;;;;;;6.08;70.01;95798.66;4176888;28;20735;-75
2022/12/31 05:15:07;;;;;;;76.53;44.15;;;;;;;6.01;70.26;95794.81;4175240;28;20132;-73
2022/12/31 05:17:09;;;;;;;82.93;48.65;;;;;;;5.85;70.62;95804.53;4174383;28;20064;-75
2022/12/31 05:19:11;;;;;;;75.90;46.42;;;;;;;5.80;71.04;95799.66;4176776;28;20550;-75
2022/12/31 05:21:19;;;;;;;73.72;43.97;;;;;;;5.87;71.08;95815.66;4173522;28;20057;-74
2022/12/31 05:23:21;;;;;;;75.13;44.35;;;;;;;5.93;70.48;95810.06;4167049;28;20049;-76
2022/12/31 05:25:23;;;;;;;75.03;43.95;;;;;;;5.98;70.38;95813.25;4175752;28;20107;-75
2022/12/31 05:27:26;;;;;;;73.90;42.47;;;;;;;6.02;70.38;95812.06;4174427;28;20057;-73
2022/12/31 05:29:27;;;;;;;70.47;42.38;;;;;;;6.06;70.17;95810.94;4164814;28;20049;-77
2022/12/31 05:31:29;;;;;;;60.75;38.17;;;;;;;6.06;70.33;95808.31;4176330;28;20053;-77
2022/12/31 05:33:31;;;;;;;66.90;40.17;;;;;;;6.04;69.87;95820.59;4164838;28;20058;-75
2022/12/31 05:35:33;;;;;;;63.95;40.30;;;;;;;6.02;70.15;95816.44;4161800;28;20053;-75
2022/12/31 05:37:35;;;;;;;63.42;38.13;;;;;;;6.04;70.13;95817.16;4175819;28;20048;-76
2022/12/31 05:39:36;;;;;;;61.67;36.72;;;;;;;6.03;70.00;95818.94;4176473;28;20119;-75
2022/12/31 05:41:38;;;;;;;57.30;37.25;;;;;;;6.03;69.93;95821.56;4175053;28;20053;-76
2022/12/31 05:43:40;;;;;;;61.80;38.42;;;;;;;6.05;70.35;95824.06;4175976;28;20189;-74
2022/12/31 05:45:42;;;;;;;63.88;37.60;;;;;;;6.05;69.97;95816.25;4175912;28;20114;-75
2022/12/31 05:47:44;;;;;;;59.10;35.00;;;;;;;6.05;69.87;95824.06;4174845;28;20075;-75
2022/12/31 05:49:46;;;;;;;59.22;32.10;;;;;;;6.04;69.69;95823.19;4175711;28;20048;-76
2022/12/31 05:51:48;;;;;;;55.25;31.23;;;;;;;6.06;69.53;95823.09;4176253;28;20480;-74
2022/12/31 05:53:49;;;;;;;58.67;32.92;;;;;;;6.07;68.88;95825.63;4175617;28;20053;-75
2022/12/31 05:55:51;;;;;;;44.90;29.83;;;;;;;6.12;69.06;95822.69;4175999;28;20118;-75
2022/12/31 05:57:53;;;;;;;53.28;29.15;;;;;;;6.14;68.87;95819.03;4176342;28;20056;-74
2022/12/31 05:59:55;;;;;;;45.30;27.48;;;;;;;6.15;68.47;95827.69;4175747;28;20131;-75
2022/12/31 06:01:57;;;;;;;43.70;26.30;;;;;;;6.03;69.21;95828.53;4175660;28;20144;-74
2022/12/31 06:03:59;;;;;;;45.17;25.75;;;;;;;5.95;69.11;95831.63;4173907;28;20053;-75
2022/12/31 06:06:01;;;;;;;41.53;25.70;;;;;;;5.92;69.32;95834.41;4176397;28;20049;-75
2022/12/31 06:08:03;;;;;;;43.97;25.90;;;;;;;5.92;69.71;95839.63;4179170;28;20471;-75
2022/12/31 06:10:05;;;;;;;44.45;26.02;;;;;;;5.97;69.43;95842.75;4176806;28;20049;-76
2022/12/31 06:12:07;;;;;;;39.78;25.55;;;;;;;5.99;69.22;95834.88;4165572;28;20065;-73
2022/12/31 06:14:09;;;;;;;39.28;23.83;;;;;;;6.02;69.08;95835.47;4166886;28;20433;-74
2022/12/31 06:16:11;;;;;;;41.00;24.88;;;;;;;6.08;69.04;95837.66;4172010;28;20426;-76
2022/12/31 06:18:13;;;;;;;37.83;24.27;;;;;;;6.13;68.79;95840.81;4158932;28;20132;-76
2022/12/31 06:20:15;;;;;;;46.08;25.30;;;;;;;6.10;68.42;95843.59;4171163;28;20057;-75
2022/12/31 06:22:17;;;;;;;37.95;22.92;;;;;;;6.15;68.42;95840.69;4170494;28;20061;-76
2022/12/31 06:24:18;;;;;;;41.15;24.23;;;;;;;6.15;68.29;95841.53;4169921;28;20049;-76
2022/12/31 06:26:20;;;;;;;42.65;23.52;;;;;;;6.21;68.42;95844.66;4155538;28;20076;-74
2022/12/31 06:28:22;;;;;;;41.22;23.48;;;;;;;6.33;68.40;95849.03;4176739;28;20119;-75
2022/12/31 06:30:24;;;;;;;41.10;24.00;;;;;;;6.36;67.92;95854.84;4179854;28;20052;-74
2022/12/31 06:32:26;;;;;;;36.50;22.73;;;;;;;6.41;67.83;95851.09;4161185;28;20059;-74
2022/12/31 06:34:27;;;;;;;37.80;23.15;;;;;;;6.52;67.64;95857.25;4187138;28;20072;-74
2022/12/31 06:36:29;;;;;;;41.17;22.23;;;;;;;6.75;67.07;95857.41;4188158;28;20110;-75
2022/12/31 06:38:32;;;;;;;41.35;23.95;;;;;;;7.21;66.58;95868.97;4152671;28;20501;-77
2022/12/31 06:40:36;;;;;;;37.33;22.38;;;;;;;7.75;64.29;95863.28;4179154;28;20067;-77
2022/12/31 06:42:38;;;;;;;34.85;22.27;;;;;;;8.25;62.97;95863.06;4172102;28;20351;-76
2022/12/31 06:44:40;;;;;;;42.45;25.45;;;;;;;8.47;62.65;95868.34;4177525;28;20127;-75
2022/12/31 06:46:41;;;;;;;39.92;24.65;;;;;;;8.48;60.70;95871.81;4178505;28;20064;-76
2022/12/31 06:48:43;;;;;;;49.17;29.75;;;;;;;8.19;61.52;95880.88;4174842;28;20103;-74
2022/12/31 06:50:45;;;;;;;41.88;27.52;;;;;;;7.79;62.28;95878.59;4167751;28;20073;-77
2022/12/31 06:52:47;;;;;;;54.20;33.05;;;;;;;7.42;63.70;95880.47;4177689;28;20460;-76
2022/12/31 06:54:49;;;;;;;46.30;30.35;;;;;;;7.27;65.12;95885.00;4169093;28;20120;-76
2022/12/31 06:56:51;;;;;;;54.15;33.10;;;;;;;7.21;64.97;95880.22;4171844;28;20145;-77
2022/12/31 06:58:54;;;;;;;57.75;32.30;;;;;;;7.15;65.08;95889.31;4179018;28;20399;-76
2022/12/31 07:01:33;;;;;;;61.00;32.33;;;;;;;7.00;65.75;95894.78;4160405;28;20079;-76
2022/12/31 07:03:49;;;;;;;61.58;31.55;;;;;;;6.91;65.96;95891.88;4166524;28;20092;-75
2022/12/31 07:05:57;;;;;;;71.85;33.15;;;;;;;6.84;66.52;95890.63;4174807;28;20369;-76
2022/12/31 07:08:14;;;;;;;55.00;31.60;;;;;;;6.96;66.21;95896.75;4152155;28;20413;-74
2022/12/31 07:10:21;;;;;;;58.15;32.35;;;;;;;6.98;65.99;95895.69;4178009;28;20049;-74
2022/12/31 07:12:42;;;;;;;57.85;31.80;;;;;;;7.11;66.12;95898.28;4165043;28;20055;-73
2022/12/31 07:15:05;;;;;;;56.10;30.85;;;;;;;7.26;65.80;95900.75;4178573;28;20080;-75
2022/12/31 07:17:16;;;;;;;52.37;30.57;;;;;;;7.39;65.50;95907.56;4163829;28;20554;-73
2022/12/31 07:19:34;;;;;;;92.80;50.90;;;;;;;7.45;65.22;95903.69;4175458;28;20049;-76
2022/12/31 07:21:37;;;;;;;58.05;35.35;;;;;;;7.51;65.69;95907.66;4161720;28;20049;-75
2022/12/31 07:23:41;;;;;;;53.38;28.95;;;;;;;7.58;64.80;95909.69;4127947;28;20142;-73
2022/12/31 07:25:53;;;;;;;41.15;26.00;;;;;;;7.68;64.68;95909.00;4162144;28;20072;-76
2022/12/31 07:28:50;;;;;;;38.50;24.27;;;;;;;7.77;64.75;95917.00;4149339;28;20057;-73
2022/12/31 07:31:03;;;;;;;41.55;24.27;;;;;;;7.87;64.62;95909.38;4076978;29;20153;-73
2022/12/31 07:33:46;;;;;;;39.60;24.10;;;;;;;7.99;64.11;95908.44;4142654;28;20057;-73
2022/12/31 07:35:55;;;;;;;39.97;23.63;;;;;;;8.09;65.58;95908.59;4149312;28;20056;-74
2022/12/31 07:38:11;;;;;;;38.42;24.42;;;;;;;8.23;64.36;95920.59;4177704;28;20049;-76
2022/12/31 07:40:26;;;;;;;42.53;23.88;;;;;;;8.32;63.49;95911.25;4175606;28;20319;-75
2022/12/31 07:42:55;;;;;;;45.03;25.20;;;;;;;8.33;64.14;95915.53;4158847;28;20055;-75
2022/12/31 07:45:07;;;;;;;39.55;24.52;;;;;;;8.26;63.75;95916.94;4166627;28;20052;-74
2022/12/31 07:47:19;;;;;;;43.55;25.58;;;;;;;8.16;63.81;95909.78;4166306;28;20474;-75
2022/12/31 07:49:22;;;;;;;39.35;24.35;;;;;;;8.10;63.90;95923.31;4150316;28;20421;-75
2022/12/31 07:51:24;;;;;;;42.25;23.75;;;;;;;8.18;64.57;95928.78;4178256;28;20140;-75
2022/12/31 07:53:26;;;;;;;56.90;33.85;;;;;;;8.19;64.39;95927.00;4166397;28;20049;-75
2022/12/31 07:55:28;;;;;;;48.97;28.83;;;;;;;8.33;64.19;95933.81;4166692;28;20484;-75
2022/12/31 07:57:34;;;;;;;32.83;20.27;;;;;;;8.45;63.78;95932.91;4169182;28;20446;-76
2022/12/31 07:59:40;;;;;;;35.25;23.48;;;;;;;8.58;63.09;95928.44;4150815;28;20057;-76
2022/12/31 08:01:47;;;;;;;36.72;21.67;;;;;;;8.71;63.02;95932.72;4148735;28;20049;-76
2022/12/31 08:04:15;;;;;;;36.60;20.23;;;;;;;8.84;62.94;95922.16;4174490;28;20053;-76
2022/12/31 08:06:49;;;;;;;31.77;18.33;;;;;;;8.85;62.22;95929.06;4128138;28;20053;-76
2022/12/31 08:09:19;;;;;;;29.35;17.80;;;;;;;8.91;61.98;95926.81;4147805;28;20057;-74
2022/12/31 08:11:39;;;;;;;23.13;13.38;;;;;;;8.71;61.46;95919.66;4162765;28;20215;-76
2022/12/31 08:13:41;;;;;;;25.00;15.40;;;;;;;8.71;62.08;95920.50;4173927;28;20079;-73
2022/12/31 08:15:43;;;;;;;27.35;16.60;;;;;;;8.88;61.80;95923.59;4158722;28;20432;-74
2022/12/31 08:17:45;;;;;;;25.10;15.10;;;;;;;9.03;61.48;95925.00;4163753;28;20053;-74
2022/12/31 08:20:05;;;;;;;24.42;14.25;;;;;;;9.21;61.01;95920.13;4167601;28;20425;-75
2022/12/31 08:22:21;;;;;;;25.52;13.85;;;;;;;9.37;61.09;95925.81;4165304;28;20057;-77
2022/12/31 08:24:48;;;;;;;30.17;17.17;;;;;;;9.46;61.04;95928.66;4171223;28;20119;-75
2022/12/31 08:27:02;;;;;;;27.20;16.15;;;;;;;9.42;60.15;95934.13;4176165;28;20080;-74
2022/12/31 08:29:16;;;;;;;26.77;16.35;;;;;;;9.35;60.43;95927.72;4163211;28;20384;-74
2022/12/31 08:31:31;;;;;;;50.33;30.35;;;;;;;9.31;60.72;95928.91;4163090;28;20404;-77
2022/12/31 08:33:51;;;;;;;30.02;18.27;;;;;;;9.40;60.96;95935.22;4163023;28;20357;-75
2022/12/31 08:35:53;;;;;;;29.00;15.60;;;;;;;9.32;59.98;95933.19;4163631;28;20045;-76
2022/12/31 08:38:22;;;;;;;29.33;18.08;;;;;;;9.49;61.33;95931.84;4163048;28;20140;-75
2022/12/31 08:40:33;;;;;;;33.05;18.85;;;;;;;9.53;60.27;95925.44;4162786;28;20080;-74
2022/12/31 08:43:13;;;;;;;33.80;20.40;;;;;;;9.34;60.28;95935.69;4165558;28;20106;-75
2022/12/31 08:45:30;;;;;;;31.40;18.83;;;;;;;9.33;61.14;95924.38;4150804;28;20148;-73
2022/12/31 08:47:51;;;;;;;29.23;17.83;;;;;;;9.43;60.74;95930.56;4163013;28;20053;-75
2022/12/31 08:50:00;;;;;;;32.22;19.38;;;;;;;9.58;60.70;95922.44;4151036;28;20159;-76
2022/12/31 08:52:02;;;;;;;33.33;19.05;;;;;;;9.75;60.44;95919.31;4166292;28;20057;-76
2022/12/31 08:54:04;;;;;;;35.70;19.77;;;;;;;9.81;59.49;95926.66;4173316;28;20124;-75
2022/12/31 08:56:12;;;;;;;33.42;19.80;;;;;;;9.81;58.95;95926.66;4159012;28;20104;-75
2022/12/31 08:58:19;;;;;;;30.45;19.15;;;;;;;9.76;58.92;95926.19;4159705;28;20088;-75
2022/12/31 09:00:21;;;;;;;33.55;19.63;;;;;;;9.66;58.68;95922.66;4164970;28;20477;-76
2022/12/31 09:02:57;;;;;;;29.80;19.35;;;;;;;9.31;59.91;95922.84;4173086;28;20053;-73
2022/12/31 09:05:23;;;;;;;33.83;20.20;;;;;;;9.45;60.25;95917.34;4168537;28;20381;-74
2022/12/31 09:07:40;;;;;;;35.00;20.05;;;;;;;9.72;60.47;95916.94;4146288;28;20373;-76
2022/12/31 09:09:59;;;;;;;36.00;19.60;;;;;;;9.92;58.87;95914.50;4158390;28;20057;-74
2022/12/31 09:12:27;;;;;;;31.20;19.10;;;;;;;10.15;59.33;95909.97;4176609;28;20095;-77
2022/12/31 09:15:12;;;;;;;26.85;17.48;;;;;;;10.36;58.74;95904.78;4159265;28;20053;-75
2022/12/31 09:17:31;;;;;;;27.17;18.02;;;;;;;10.24;57.60;95912.66;4120268;28;20058;-76
2022/12/31 09:19:33;;;;;;;35.03;19.38;;;;;;;10.22;57.91;95908.53;4159506;28;20243;-75
2022/12/31 09:21:36;;;;;;;38.03;19.30;;;;;;;10.48;58.81;95913.41;4172302;28;20057;-75
2022/12/31 09:23:39;;;;;;;35.38;20.70;;;;;;;10.64;57.43;95911.97;4175928;28;20381;-74
2022/12/31 09:26:03;;;;;;;31.88;19.65;;;;;;;10.84;57.41;95906.81;4167960;28;20379;-74
2022/12/31 09:28:25;;;;;;;30.02;20.80;;;;;;;10.89;56.71;95907.28;4164563;28;20053;-76
2022/12/31 09:30:28;;;;;;;34.30;20.30;;;;;;;10.56;56.61;95906.56;4156651;28;20049;-75
2022/12/31 09:32:51;;;;;;;33.50;20.00;;;;;;;10.26;57.54;95902.06;4158192;28;20060;-74
2022/12/31 09:35:35;;;;;;;34.60;19.90;;;;;;;10.46;58.15;95889.97;4166956;28;20081;-74
2022/12/31 09:37:48;;;;;;;33.50;20.85;;;;;;;10.75;57.22;95881.41;4169775;28;20044;-75
2022/12/31 09:39:50;;;;;;;31.63;22.07;;;;;;;10.86;56.64;95876.91;4175571;28;20053;-77
2022/12/31 09:42:08;;;;;;;33.10;21.05;;;;;;;11.03;56.56;95867.59;4157154;28;20068;-74
2022/12/31 09:44:47;;;;;;;34.22;21.25;;;;;;;11.21;55.77;95866.97;4164313;28;20155;-75
2022/12/31 09:47:04;;;;;;;31.00;20.13;;;;;;;11.36;55.37;95868.22;4176605;28;20056;-75
2022/12/31 09:49:43;;;;;;;29.92;20.25;;;;;;;11.46;55.17;95857.75;4176403;28;20094;-74
2022/12/31 09:52:12;;;;;;;35.00;21.45;;;;;;;11.58;54.59;95855.84;4168698;28;20107;-75
2022/12/31 09:54:20;;;;;;;35.00;22.90;;;;;;;11.45;54.19;95861.34;4158091;28;20053;-75
2022/12/31 09:56:28;;;;;;;37.47;23.38;;;;;;;10.73;56.07;95850.06;4176291;28;20060;-77
2022/12/31 09:58:57;;;;;;;38.67;24.50;;;;;;;10.67;56.73;95861.09;4176296;28;20057;-76
2022/12/31 10:01:17;;;;;;;40.58;25.08;;;;;;;10.70;56.29;95849.53;4164686;28;20057;-76
2022/12/31 10:03:39;;;;;;;46.90;23.30;;;;;;;10.84;56.47;95854.41;4175257;28;20053;-74
2022/12/31 10:05:45;;;;;;;37.15;23.92;;;;;;;10.97;56.42;95855.03;4157841;28;20141;-75